sensor_id;sensor_type;location;lat;lon;timestamp;P1;durP1;ratioP1;P2;durP2;ratioP2
35693;SDS011;21812;55.536;37.664;2022-10-20T00:01:13;6.80;;;4.40;;
35693;SDS011;21812;55.536;37.664;2022-10-20T00:03:40;6.28;;;4.45;;
35693;SDS011;21812;55.536;37.664;2022-10-20T00:08:37;5.75;;;4.50;;
35693;SDS011;21812;55.536;37.664;2022-10-20T00:11:03;6.25;;;3.42;;
35693;SDS011;21812;55.536;37.664;2022-10-20T00:13:29;5.68;;;3.55;;
35693;SDS011;21812;55.536;37.664;2022-10-20T00:15:55;5.28;;;3.63;;
35693;SDS011;21812;55.536;37.664;2022-10-20T00:18:23;4.63;;;3.58;;
35693;SDS011;21812;55.536;37.664;2022-10-20T00:20:49;5.93;;;4.25;;
35693;SDS011;21812;55.536;37.664;2022-10-20T00:23:14;4.03;;;3.42;;
35693;SDS011;21812;55.536;37.664;2022-10-20T00:25:40;4.82;;;3.65;;
35693;SDS011;21812;55.536;37.664;2022-10-20T00:28:06;4.35;;;3.70;;
35693;SDS011;21812;55.536;37.664;2022-10-20T00:30:32;5.03;;;3.95;;
35693;SDS011;21812;55.536;37.664;2022-10-20T00:32:59;5.60;;;3.60;;
35693;SDS011;21812;55.536;37.664;2022-10-20T00:35:25;6.85;;;3.15;;
35693;SDS011;21812;55.536;37.664;2022-10-20T00:37:50;4.80;;;3.30;;
35693;SDS011;21812;55.536;37.664;2022-10-20T00:40:16;5.22;;;3.67;;
35693;SDS011;21812;55.536;37.664;2022-10-20T00:42:45;3.70;;;2.80;;
35693;SDS011;21812;55.536;37.664;2022-10-20T00:45:12;3.67;;;2.47;;
35693;SDS011;21812;55.536;37.664;2022-10-20T00:47:44;5.32;;;2.78;;
35693;SDS011;21812;55.536;37.664;2022-10-20T00:50:15;5.43;;;3.03;;
35693;SDS011;21812;55.536;37.664;2022-10-20T00:52:53;6.43;;;3.17;;
35693;SDS011;21812;55.536;37.664;2022-10-20T00:55:24;3.75;;;3.00;;
35693;SDS011;21812;55.536;37.664;2022-10-20T00:57:53;3.83;;;2.70;;
35693;SDS011;21812;55.536;37.664;2022-10-20T01:00:20;5.43;;;2.67;;
35693;SDS011;21812;55.536;37.664;2022-10-20T01:02:47;3.58;;;2.13;;
35693;SDS011;21812;55.536;37.664;2022-10-20T01:05:15;3.97;;;2.55;;
35693;SDS011;21812;55.536;37.664;2022-10-20T01:07:40;5.25;;;2.75;;
35693;SDS011;21812;55.536;37.664;2022-10-20T01:10:06;5.53;;;2.92;;
35693;SDS011;21812;55.536;37.664;2022-10-20T01:17:55;2.20;;;2.00;;
35693;SDS011;21812;55.536;37.664;2022-10-20T01:23:43;2.90;;;1.80;;
35693;SDS011;21812;55.536;37.664;2022-10-20T01:28:47;2.90;;;2.50;;
35693;SDS011;21812;55.536;37.664;2022-10-20T01:31:34;2.78;;;1.98;;
35693;SDS011;21812;55.536;37.664;2022-10-20T01:34:12;4.57;;;3.28;;
35693;SDS011;21812;55.536;37.664;2022-10-20T01:36:46;3.55;;;1.95;;
35693;SDS011;21812;55.536;37.664;2022-10-20T01:42:06;2.58;;;1.60;;
35693;SDS011;21812;55.536;37.664;2022-10-20T01:44:37;2.30;;;1.75;;
35693;SDS011;21812;55.536;37.664;2022-10-20T01:47:06;3.13;;;2.08;;
35693;SDS011;21812;55.536;37.664;2022-10-20T01:49:34;4.78;;;2.50;;
35693;SDS011;21812;55.536;37.664;2022-10-20T01:52:00;1.92;;;1.73;;
35693;SDS011;21812;55.536;37.664;2022-10-20T01:54:27;3.63;;;2.13;;
35693;SDS011;21812;55.536;37.664;2022-10-20T01:59:29;3.15;;;2.22;;
35693;SDS011;21812;55.536;37.664;2022-10-20T02:02:21;3.70;;;2.00;;
35693;SDS011;21812;55.536;37.664;2022-10-20T02:07:37;2.17;;;1.70;;
35693;SDS011;21812;55.536;37.664;2022-10-20T02:10:18;5.32;;;2.20;;
35693;SDS011;21812;55.536;37.664;2022-10-20T02:12:48;3.20;;;2.15;;
35693;SDS011;21812;55.536;37.664;2022-10-20T02:15:38;3.92;;;1.75;;
35693;SDS011;21812;55.536;37.664;2022-10-20T02:18:09;3.80;;;2.78;;
35693;SDS011;21812;55.536;37.664;2022-10-20T02:20:39;5.38;;;2.42;;
35693;SDS011;21812;55.536;37.664;2022-10-20T02:23:07;3.75;;;2.25;;
35693;SDS011;21812;55.536;37.664;2022-10-20T02:25:34;6.20;;;2.70;;
35693;SDS011;21812;55.536;37.664;2022-10-20T02:28:03;5.05;;;2.92;;
35693;SDS011;21812;55.536;37.664;2022-10-20T02:30:33;2.30;;;1.92;;
35693;SDS011;21812;55.536;37.664;2022-10-20T02:33:00;3.58;;;1.95;;
35693;SDS011;21812;55.536;37.664;2022-10-20T02:35:29;6.30;;;2.15;;
35693;SDS011;21812;55.536;37.664;2022-10-20T02:37:56;5.88;;;2.38;;
35693;SDS011;21812;55.536;37.664;2022-10-20T02:40:22;3.10;;;2.28;;
35693;SDS011;21812;55.536;37.664;2022-10-20T02:42:48;4.28;;;2.00;;
35693;SDS011;21812;55.536;37.664;2022-10-20T02:45:14;4.40;;;1.77;;
35693;SDS011;21812;55.536;37.664;2022-10-20T02:47:40;5.13;;;2.42;;
35693;SDS011;21812;55.536;37.664;2022-10-20T02:50:06;3.13;;;1.83;;
35693;SDS011;21812;55.536;37.664;2022-10-20T02:52:32;2.97;;;1.55;;
35693;SDS011;21812;55.536;37.664;2022-10-20T02:54:58;3.22;;;1.77;;
35693;SDS011;21812;55.536;37.664;2022-10-20T02:57:24;2.05;;;1.60;;
35693;SDS011;21812;55.536;37.664;2022-10-20T02:59:51;2.67;;;1.45;;
35693;SDS011;21812;55.536;37.664;2022-10-20T03:02:17;4.72;;;1.98;;
35693;SDS011;21812;55.536;37.664;2022-10-20T03:04:42;2.10;;;1.30;;
35693;SDS011;21812;55.536;37.664;2022-10-20T03:07:08;2.20;;;1.55;;
35693;SDS011;21812;55.536;37.664;2022-10-20T03:09:34;1.88;;;1.33;;
35693;SDS011;21812;55.536;37.664;2022-10-20T03:12:01;2.67;;;1.42;;
35693;SDS011;21812;55.536;37.664;2022-10-20T03:14:26;2.28;;;1.13;;
35693;SDS011;21812;55.536;37.664;2022-10-20T03:16:52;2.92;;;1.42;;
35693;SDS011;21812;55.536;37.664;2022-10-20T03:19:18;1.65;;;1.15;;
35693;SDS011;21812;55.536;37.664;2022-10-20T03:21:43;3.17;;;1.05;;
35693;SDS011;21812;55.536;37.664;2022-10-20T03:24:10;3.53;;;1.02;;
35693;SDS011;21812;55.536;37.664;2022-10-20T03:26:35;2.47;;;1.48;;
35693;SDS011;21812;55.536;37.664;2022-10-20T03:29:01;2.80;;;0.98;;
35693;SDS011;21812;55.536;37.664;2022-10-20T03:31:27;5.10;;;1.30;;
35693;SDS011;21812;55.536;37.664;2022-10-20T03:33:52;2.03;;;1.10;;
35693;SDS011;21812;55.536;37.664;2022-10-20T03:36:18;5.38;;;1.00;;
35693;SDS011;21812;55.536;37.664;2022-10-20T03:38:44;3.78;;;1.60;;
35693;SDS011;21812;55.536;37.664;2022-10-20T03:41:09;9.57;;;1.92;;
35693;SDS011;21812;55.536;37.664;2022-10-20T03:43:37;11.20;;;1.98;;
35693;SDS011;21812;55.536;37.664;2022-10-20T03:46:04;4.07;;;1.23;;
35693;SDS011;21812;55.536;37.664;2022-10-20T03:48:31;5.15;;;1.38;;
35693;SDS011;21812;55.536;37.664;2022-10-20T03:50:56;2.50;;;1.38;;
35693;SDS011;21812;55.536;37.664;2022-10-20T03:53:24;2.60;;;1.70;;
35693;SDS011;21812;55.536;37.664;2022-10-20T03:55:50;2.85;;;1.40;;
35693;SDS011;21812;55.536;37.664;2022-10-20T03:58:15;4.55;;;1.20;;
35693;SDS011;21812;55.536;37.664;2022-10-20T04:00:41;4.18;;;1.38;;
35693;SDS011;21812;55.536;37.664;2022-10-20T04:03:07;3.38;;;1.50;;
35693;SDS011;21812;55.536;37.664;2022-10-20T04:05:35;4.50;;;1.30;;
35693;SDS011;21812;55.536;37.664;2022-10-20T04:08:00;2.55;;;1.13;;
35693;SDS011;21812;55.536;37.664;2022-10-20T04:10:28;2.03;;;1.45;;
35693;SDS011;21812;55.536;37.664;2022-10-20T04:13:01;4.97;;;2.83;;
35693;SDS011;21812;55.536;37.664;2022-10-20T04:15:27;5.18;;;1.25;;
35693;SDS011;21812;55.536;37.664;2022-10-20T04:17:53;5.72;;;2.75;;
35693;SDS011;21812;55.536;37.664;2022-10-20T04:20:19;20.20;;;6.45;;
35693;SDS011;21812;55.536;37.664;2022-10-20T04:22:44;45.75;;;10.40;;
35693;SDS011;21812;55.536;37.664;2022-10-20T04:25:10;96.50;;;22.25;;
35693;SDS011;21812;55.536;37.664;2022-10-20T04:27:38;56.25;;;11.85;;
35693;SDS011;21812;55.536;37.664;2022-10-20T04:30:04;10.13;;;3.67;;
35693;SDS011;21812;55.536;37.664;2022-10-20T04:32:31;14.77;;;4.88;;
35693;SDS011;21812;55.536;37.664;2022-10-20T04:34:56;19.08;;;5.03;;
35693;SDS011;21812;55.536;37.664;2022-10-20T04:37:24;4.75;;;1.65;;
35693;SDS011;21812;55.536;37.664;2022-10-20T04:39:50;46.67;;;12.90;;
35693;SDS011;21812;55.536;37.664;2022-10-20T04:42:18;26.83;;;8.60;;
35693;SDS011;21812;55.536;37.664;2022-10-20T04:44:44;4.53;;;2.70;;
35693;SDS011;21812;55.536;37.664;2022-10-20T04:47:10;4.82;;;2.50;;
35693;SDS011;21812;55.536;37.664;2022-10-20T04:49:36;9.77;;;4.13;;
35693;SDS011;21812;55.536;37.664;2022-10-20T04:52:02;14.13;;;4.60;;
35693;SDS011;21812;55.536;37.664;2022-10-20T04:54:28;19.35;;;6.57;;
35693;SDS011;21812;55.536;37.664;2022-10-20T04:56:54;9.77;;;4.25;;
35693;SDS011;21812;55.536;37.664;2022-10-20T04:59:20;11.00;;;3.60;;
35693;SDS011;21812;55.536;37.664;2022-10-20T05:01:46;5.40;;;3.13;;
35693;SDS011;21812;55.536;37.664;2022-10-20T05:04:12;4.82;;;3.35;;
35693;SDS011;21812;55.536;37.664;2022-10-20T05:06:37;8.32;;;4.00;;
35693;SDS011;21812;55.536;37.664;2022-10-20T05:09:04;8.27;;;3.38;;
35693;SDS011;21812;55.536;37.664;2022-10-20T05:11:33;9.30;;;3.65;;
35693;SDS011;21812;55.536;37.664;2022-10-20T05:14:00;4.25;;;2.90;;
35693;SDS011;21812;55.536;37.664;2022-10-20T05:16:26;5.93;;;3.28;;
35693;SDS011;21812;55.536;37.664;2022-10-20T05:18:52;5.00;;;3.55;;
35693;SDS011;21812;55.536;37.664;2022-10-20T05:21:20;8.55;;;3.70;;
35693;SDS011;21812;55.536;37.664;2022-10-20T05:23:47;7.13;;;3.10;;
35693;SDS011;21812;55.536;37.664;2022-10-20T05:26:17;3.78;;;3.35;;
35693;SDS011;21812;55.536;37.664;2022-10-20T05:28:44;4.10;;;3.28;;
35693;SDS011;21812;55.536;37.664;2022-10-20T05:31:11;6.68;;;3.13;;
35693;SDS011;21812;55.536;37.664;2022-10-20T05:33:37;5.05;;;4.07;;
35693;SDS011;21812;55.536;37.664;2022-10-20T05:36:09;4.70;;;3.55;;
35693;SDS011;21812;55.536;37.664;2022-10-20T05:38:36;3.95;;;2.90;;
35693;SDS011;21812;55.536;37.664;2022-10-20T05:41:05;6.90;;;3.47;;
35693;SDS011;21812;55.536;37.664;2022-10-20T05:43:31;4.03;;;2.08;;
35693;SDS011;21812;55.536;37.664;2022-10-20T05:45:57;5.68;;;2.85;;
35693;SDS011;21812;55.536;37.664;2022-10-20T05:48:22;3.33;;;2.38;;
35693;SDS011;21812;55.536;37.664;2022-10-20T05:50:48;7.40;;;3.70;;
35693;SDS011;21812;55.536;37.664;2022-10-20T05:53:13;6.30;;;4.50;;
35693;SDS011;21812;55.536;37.664;2022-10-20T05:55:39;5.45;;;3.20;;
35693;SDS011;21812;55.536;37.664;2022-10-20T05:58:05;4.43;;;3.67;;
35693;SDS011;21812;55.536;37.664;2022-10-20T06:00:31;4.10;;;2.78;;
35693;SDS011;21812;55.536;37.664;2022-10-20T06:03:05;9.00;;;4.30;;
35693;SDS011;21812;55.536;37.664;2022-10-20T06:05:31;9.63;;;6.90;;
35693;SDS011;21812;55.536;37.664;2022-10-20T06:07:57;5.25;;;3.50;;
35693;SDS011;21812;55.536;37.664;2022-10-20T06:10:22;6.78;;;3.13;;
35693;SDS011;21812;55.536;37.664;2022-10-20T06:12:48;4.43;;;3.35;;
35693;SDS011;21812;55.536;37.664;2022-10-20T06:15:14;3.42;;;2.45;;
35693;SDS011;21812;55.536;37.664;2022-10-20T06:17:40;4.93;;;3.13;;
35693;SDS011;21812;55.536;37.664;2022-10-20T06:20:06;5.20;;;3.80;;
35693;SDS011;21812;55.536;37.664;2022-10-20T06:22:32;4.03;;;2.78;;
35693;SDS011;21812;55.536;37.664;2022-10-20T06:24:58;5.47;;;3.30;;
35693;SDS011;21812;55.536;37.664;2022-10-20T06:27:23;5.85;;;3.65;;
35693;SDS011;21812;55.536;37.664;2022-10-20T06:29:49;6.00;;;3.80;;
35693;SDS011;21812;55.536;37.664;2022-10-20T06:32:14;5.35;;;2.53;;
35693;SDS011;21812;55.536;37.664;2022-10-20T06:34:42;7.80;;;3.67;;
35693;SDS011;21812;55.536;37.664;2022-10-20T06:37:08;3.90;;;2.58;;
35693;SDS011;21812;55.536;37.664;2022-10-20T06:39:34;4.55;;;2.92;;
35693;SDS011;21812;55.536;37.664;2022-10-20T06:42:00;3.17;;;2.40;;
35693;SDS011;21812;55.536;37.664;2022-10-20T06:44:30;2.92;;;2.00;;
35693;SDS011;21812;55.536;37.664;2022-10-20T06:46:55;5.07;;;2.90;;
35693;SDS011;21812;55.536;37.664;2022-10-20T06:49:24;2.33;;;1.98;;
35693;SDS011;21812;55.536;37.664;2022-10-20T06:51:49;2.78;;;2.00;;
35693;SDS011;21812;55.536;37.664;2022-10-20T06:54:15;2.40;;;2.00;;
35693;SDS011;21812;55.536;37.664;2022-10-20T06:56:41;2.33;;;1.80;;
35693;SDS011;21812;55.536;37.664;2022-10-20T06:59:09;3.55;;;2.47;;
35693;SDS011;21812;55.536;37.664;2022-10-20T07:01:35;3.20;;;1.65;;
35693;SDS011;21812;55.536;37.664;2022-10-20T07:04:05;3.33;;;2.05;;
35693;SDS011;21812;55.536;37.664;2022-10-20T07:06:39;1.88;;;1.60;;
35693;SDS011;21812;55.536;37.664;2022-10-20T07:09:06;3.95;;;1.67;;
35693;SDS011;21812;55.536;37.664;2022-10-20T07:11:33;3.47;;;1.70;;
35693;SDS011;21812;55.536;37.664;2022-10-20T07:14:00;5.47;;;2.28;;
35693;SDS011;21812;55.536;37.664;2022-10-20T07:16:27;4.65;;;1.52;;
35693;SDS011;21812;55.536;37.664;2022-10-20T07:18:55;6.18;;;2.38;;
35693;SDS011;21812;55.536;37.664;2022-10-20T07:21:22;25.35;;;6.50;;
35693;SDS011;21812;55.536;37.664;2022-10-20T07:23:51;11.93;;;5.22;;
35693;SDS011;21812;55.536;37.664;2022-10-20T07:26:19;13.40;;;3.63;;
35693;SDS011;21812;55.536;37.664;2022-10-20T07:28:47;7.82;;;2.72;;
35693;SDS011;21812;55.536;37.664;2022-10-20T07:31:18;6.28;;;2.05;;
35693;SDS011;21812;55.536;37.664;2022-10-20T07:33:46;6.20;;;2.40;;
35693;SDS011;21812;55.536;37.664;2022-10-20T07:36:16;5.85;;;1.88;;
35693;SDS011;21812;55.536;37.664;2022-10-20T07:38:44;4.15;;;2.05;;
35693;SDS011;21812;55.536;37.664;2022-10-20T07:41:10;3.25;;;1.75;;
35693;SDS011;21812;55.536;37.664;2022-10-20T07:43:37;4.93;;;2.05;;
35693;SDS011;21812;55.536;37.664;2022-10-20T07:46:03;4.97;;;2.42;;
35693;SDS011;21812;55.536;37.664;2022-10-20T07:48:29;3.20;;;1.90;;
35693;SDS011;21812;55.536;37.664;2022-10-20T07:54:00;4.50;;;2.33;;
35693;SDS011;21812;55.536;37.664;2022-10-20T07:56:29;4.60;;;1.55;;
35693;SDS011;21812;55.536;37.664;2022-10-20T07:58:57;4.13;;;2.10;;
35693;SDS011;21812;55.536;37.664;2022-10-20T08:01:23;4.43;;;1.95;;
35693;SDS011;21812;55.536;37.664;2022-10-20T08:03:49;5.80;;;2.95;;
35693;SDS011;21812;55.536;37.664;2022-10-20T08:06:15;3.72;;;2.00;;
35693;SDS011;21812;55.536;37.664;2022-10-20T08:08:40;2.88;;;1.45;;
35693;SDS011;21812;55.536;37.664;2022-10-20T08:11:06;4.03;;;1.67;;
35693;SDS011;21812;55.536;37.664;2022-10-20T08:13:32;4.97;;;1.73;;
35693;SDS011;21812;55.536;37.664;2022-10-20T08:15:58;3.20;;;1.58;;
35693;SDS011;21812;55.536;37.664;2022-10-20T08:18:24;2.00;;;1.52;;
35693;SDS011;21812;55.536;37.664;2022-10-20T08:20:50;3.38;;;2.00;;
35693;SDS011;21812;55.536;37.664;2022-10-20T08:23:16;3.67;;;1.98;;
35693;SDS011;21812;55.536;37.664;2022-10-20T08:25:42;4.20;;;2.15;;
35693;SDS011;21812;55.536;37.664;2022-10-20T08:28:07;2.60;;;1.65;;
35693;SDS011;21812;55.536;37.664;2022-10-20T08:30:33;5.13;;;1.70;;
35693;SDS011;21812;55.536;37.664;2022-10-20T08:32:59;2.55;;;1.40;;
35693;SDS011;21812;55.536;37.664;2022-10-20T08:35:25;3.25;;;1.40;;
35693;SDS011;21812;55.536;37.664;2022-10-20T08:37:51;3.75;;;1.23;;
35693;SDS011;21812;55.536;37.664;2022-10-20T08:40:20;3.22;;;1.60;;
35693;SDS011;21812;55.536;37.664;2022-10-20T08:42:48;3.30;;;2.25;;
35693;SDS011;21812;55.536;37.664;2022-10-20T08:45:18;2.33;;;1.85;;
35693;SDS011;21812;55.536;37.664;2022-10-20T08:47:49;2.10;;;1.48;;
35693;SDS011;21812;55.536;37.664;2022-10-20T08:50:17;2.63;;;1.75;;
35693;SDS011;21812;55.536;37.664;2022-10-20T08:52:45;10.75;;;1.63;;
35693;SDS011;21812;55.536;37.664;2022-10-20T08:55:18;3.38;;;0.85;;
35693;SDS011;21812;55.536;37.664;2022-10-20T08:57:46;3.15;;;1.00;;
35693;SDS011;21812;55.536;37.664;2022-10-20T09:00:20;2.88;;;1.38;;
35693;SDS011;21812;55.536;37.664;2022-10-20T09:02:47;2.88;;;1.50;;
35693;SDS011;21812;55.536;37.664;2022-10-20T09:05:15;1.80;;;1.10;;
35693;SDS011;21812;55.536;37.664;2022-10-20T09:07:45;1.77;;;1.08;;
35693;SDS011;21812;55.536;37.664;2022-10-20T09:10:30;2.65;;;1.20;;
35693;SDS011;21812;55.536;37.664;2022-10-20T09:13:10;2.70;;;1.50;;
35693;SDS011;21812;55.536;37.664;2022-10-20T09:15:46;3.45;;;2.08;;
35693;SDS011;21812;55.536;37.664;2022-10-20T09:18:13;2.50;;;1.05;;
35693;SDS011;21812;55.536;37.664;2022-10-20T09:23:45;2.92;;;1.58;;
35693;SDS011;21812;55.536;37.664;2022-10-20T09:26:04;2.70;;;1.70;;
35693;SDS011;21812;55.536;37.664;2022-10-20T09:28:40;4.35;;;1.55;;
35693;SDS011;21812;55.536;37.664;2022-10-20T09:33:58;5.78;;;3.22;;
35693;SDS011;21812;55.536;37.664;2022-10-20T09:36:25;4.78;;;2.15;;
35693;SDS011;21812;55.536;37.664;2022-10-20T09:38:55;2.20;;;1.63;;
35693;SDS011;21812;55.536;37.664;2022-10-20T09:41:26;3.70;;;1.52;;
35693;SDS011;21812;55.536;37.664;2022-10-20T09:46:26;2.95;;;1.45;;
35693;SDS011;21812;55.536;37.664;2022-10-20T09:48:54;2.88;;;1.90;;
35693;SDS011;21812;55.536;37.664;2022-10-20T09:51:24;2.15;;;1.33;;
35693;SDS011;21812;55.536;37.664;2022-10-20T09:58:59;2.22;;;1.50;;
35693;SDS011;21812;55.536;37.664;2022-10-20T10:01:27;2.75;;;1.35;;
35693;SDS011;21812;55.536;37.664;2022-10-20T10:03:53;2.92;;;1.30;;
35693;SDS011;21812;55.536;37.664;2022-10-20T10:06:31;2.95;;;1.60;;
35693;SDS011;21812;55.536;37.664;2022-10-20T10:12:03;2.13;;;1.05;;
35693;SDS011;21812;55.536;37.664;2022-10-20T10:17:31;2.03;;;1.02;;
35693;SDS011;21812;55.536;37.664;2022-10-20T10:20:00;1.65;;;1.15;;
35693;SDS011;21812;55.536;37.664;2022-10-20T10:22:32;1.27;;;1.17;;
35693;SDS011;21812;55.536;37.664;2022-10-20T10:24:59;2.97;;;1.30;;
35693;SDS011;21812;55.536;37.664;2022-10-20T10:27:26;1.45;;;1.23;;
35693;SDS011;21812;55.536;37.664;2022-10-20T10:32:44;1.75;;;1.10;;
35693;SDS011;21812;55.536;37.664;2022-10-20T10:37:54;2.42;;;1.30;;
35693;SDS011;21812;55.536;37.664;2022-10-20T10:40:21;1.77;;;1.25;;
35693;SDS011;21812;55.536;37.664;2022-10-20T10:45:50;2.90;;;1.23;;
35693;SDS011;21812;55.536;37.664;2022-10-20T10:51:03;3.95;;;1.30;;
35693;SDS011;21812;55.536;37.664;2022-10-20T11:15:42;3.75;;;1.17;;
35693;SDS011;21812;55.536;37.664;2022-10-20T11:24:24;6.65;;;1.80;;
35693;SDS011;21812;55.536;37.664;2022-10-20T11:27:03;1.55;;;1.17;;
35693;SDS011;21812;55.536;37.664;2022-10-20T11:29:36;6.82;;;1.85;;
35693;SDS011;21812;55.536;37.664;2022-10-20T11:37:49;2.97;;;0.90;;
35693;SDS011;21812;55.536;37.664;2022-10-20T11:40:29;2.10;;;1.30;;
35693;SDS011;21812;55.536;37.664;2022-10-20T11:43:25;2.28;;;1.65;;
35693;SDS011;21812;55.536;37.664;2022-10-20T11:48:46;1.73;;;1.08;;
35693;SDS011;21812;55.536;37.664;2022-10-20T12:11:11;2.95;;;1.27;;
35693;SDS011;21812;55.536;37.664;2022-10-20T12:19:16;3.80;;;1.92;;
35693;SDS011;21812;55.536;37.664;2022-10-20T12:24:40;2.20;;;1.13;;
35693;SDS011;21812;55.536;37.664;2022-10-20T12:37:35;3.97;;;2.72;;
35693;SDS011;21812;55.536;37.664;2022-10-20T12:42:38;1.23;;;0.70;;
35693;SDS011;21812;55.536;37.664;2022-10-20T12:47:46;4.32;;;1.20;;
35693;SDS011;21812;55.536;37.664;2022-10-20T12:52:42;3.72;;;1.55;;
35693;SDS011;21812;55.536;37.664;2022-10-20T12:55:18;1.75;;;0.85;;
35693;SDS011;21812;55.536;37.664;2022-10-20T13:06:00;2.05;;;1.08;;
35693;SDS011;21812;55.536;37.664;2022-10-20T13:08:31;1.63;;;1.05;;
35693;SDS011;21812;55.536;37.664;2022-10-20T13:16:40;3.25;;;1.52;;
35693;SDS011;21812;55.536;37.664;2022-10-20T13:19:22;2.95;;;1.75;;
35693;SDS011;21812;55.536;37.664;2022-10-20T13:21:54;1.50;;;0.93;;
35693;SDS011;21812;55.536;37.664;2022-10-20T13:24:23;2.83;;;1.63;;
35693;SDS011;21812;55.536;37.664;2022-10-20T13:26:52;2.33;;;1.27;;
35693;SDS011;21812;55.536;37.664;2022-10-20T13:29:24;2.83;;;1.52;;
35693;SDS011;21812;55.536;37.664;2022-10-20T13:34:40;1.50;;;0.63;;
35693;SDS011;21812;55.536;37.664;2022-10-20T13:50:57;3.30;;;2.28;;
35693;SDS011;21812;55.536;37.664;2022-10-20T13:53:29;1.67;;;1.17;;
35693;SDS011;21812;55.536;37.664;2022-10-20T13:56:03;2.97;;;2.20;;
35693;SDS011;21812;55.536;37.664;2022-10-20T13:58:31;1.87;;;1.10;;
35693;SDS011;21812;55.536;37.664;2022-10-20T14:01:03;7.50;;;1.40;;
35693;SDS011;21812;55.536;37.664;2022-10-20T14:03:31;11.30;;;2.38;;
35693;SDS011;21812;55.536;37.664;2022-10-20T14:06:05;2.85;;;0.95;;
35693;SDS011;21812;55.536;37.664;2022-10-20T14:08:40;5.97;;;1.30;;
35693;SDS011;21812;55.536;37.664;2022-10-20T14:11:07;3.50;;;1.55;;
35693;SDS011;21812;55.536;37.664;2022-10-20T14:13:35;3.63;;;1.35;;
35693;SDS011;21812;55.536;37.664;2022-10-20T14:16:03;3.20;;;1.40;;
35693;SDS011;21812;55.536;37.664;2022-10-20T14:18:31;6.03;;;1.80;;
35693;SDS011;21812;55.536;37.664;2022-10-20T14:21:05;3.25;;;1.13;;
35693;SDS011;21812;55.536;37.664;2022-10-20T14:23:44;2.55;;;1.30;;
35693;SDS011;21812;55.536;37.664;2022-10-20T14:26:15;3.95;;;1.40;;
35693;SDS011;21812;55.536;37.664;2022-10-20T14:28:44;2.30;;;1.35;;
35693;SDS011;21812;55.536;37.664;2022-10-20T14:31:13;1.75;;;0.90;;
35693;SDS011;21812;55.536;37.664;2022-10-20T14:33:40;8.10;;;4.40;;
35693;SDS011;21812;55.536;37.664;2022-10-20T14:36:16;34.90;;;23.38;;
35693;SDS011;21812;55.536;37.664;2022-10-20T14:38:48;23.30;;;13.48;;
35693;SDS011;21812;55.536;37.664;2022-10-20T14:41:23;23.10;;;13.32;;
35693;SDS011;21812;55.536;37.664;2022-10-20T14:43:56;19.00;;;9.40;;
35693;SDS011;21812;55.536;37.664;2022-10-20T14:46:29;8.18;;;4.85;;
35693;SDS011;21812;55.536;37.664;2022-10-20T14:59:32;6.35;;;3.90;;
35693;SDS011;21812;55.536;37.664;2022-10-20T15:04:41;6.57;;;3.08;;
35693;SDS011;21812;55.536;37.664;2022-10-20T15:07:20;6.30;;;3.00;;
35693;SDS011;21812;55.536;37.664;2022-10-20T15:09:59;4.88;;;3.10;;
35693;SDS011;21812;55.536;37.664;2022-10-20T15:22:55;7.28;;;3.85;;
35693;SDS011;21812;55.536;37.664;2022-10-20T15:25:22;7.60;;;4.30;;
35693;SDS011;21812;55.536;37.664;2022-10-20T15:27:49;8.82;;;5.47;;
35693;SDS011;21812;55.536;37.664;2022-10-20T15:30:15;8.35;;;4.95;;
35693;SDS011;21812;55.536;37.664;2022-10-20T15:32:43;6.50;;;4.15;;
35693;SDS011;21812;55.536;37.664;2022-10-20T15:35:12;15.77;;;4.80;;
35693;SDS011;21812;55.536;37.664;2022-10-20T15:37:41;10.20;;;4.65;;
35693;SDS011;21812;55.536;37.664;2022-10-20T15:40:07;12.52;;;5.57;;
35693;SDS011;21812;55.536;37.664;2022-10-20T15:42:33;13.07;;;6.10;;
35693;SDS011;21812;55.536;37.664;2022-10-20T15:44:59;12.95;;;6.97;;
35693;SDS011;21812;55.536;37.664;2022-10-20T15:47:25;11.32;;;4.60;;
35693;SDS011;21812;55.536;37.664;2022-10-20T15:49:50;13.73;;;5.40;;
35693;SDS011;21812;55.536;37.664;2022-10-20T15:52:16;33.92;;;12.85;;
35693;SDS011;21812;55.536;37.664;2022-10-20T15:54:42;17.50;;;8.00;;
35693;SDS011;21812;55.536;37.664;2022-10-20T15:57:08;18.10;;;9.88;;
35693;SDS011;21812;55.536;37.664;2022-10-20T15:59:33;15.55;;;7.78;;
35693;SDS011;21812;55.536;37.664;2022-10-20T16:02:01;8.85;;;4.93;;
35693;SDS011;21812;55.536;37.664;2022-10-20T16:04:27;8.77;;;5.47;;
35693;SDS011;21812;55.536;37.664;2022-10-20T16:06:55;7.78;;;3.55;;
35693;SDS011;21812;55.536;37.664;2022-10-20T16:09:21;6.90;;;3.42;;
35693;SDS011;21812;55.536;37.664;2022-10-20T16:11:48;5.60;;;2.85;;
35693;SDS011;21812;55.536;37.664;2022-10-20T16:14:14;5.03;;;1.95;;
35693;SDS011;21812;55.536;37.664;2022-10-20T16:16:40;3.65;;;2.20;;
35693;SDS011;21812;55.536;37.664;2022-10-20T16:19:06;1.85;;;1.42;;
35693;SDS011;21812;55.536;37.664;2022-10-20T16:21:32;4.43;;;1.60;;
35693;SDS011;21812;55.536;37.664;2022-10-20T16:23:58;2.80;;;1.27;;
35693;SDS011;21812;55.536;37.664;2022-10-20T16:26:25;2.35;;;1.00;;
35693;SDS011;21812;55.536;37.664;2022-10-20T16:28:51;2.80;;;1.50;;
35693;SDS011;21812;55.536;37.664;2022-10-20T16:31:17;1.83;;;1.05;;
35693;SDS011;21812;55.536;37.664;2022-10-20T16:33:43;1.92;;;1.13;;
35693;SDS011;21812;55.536;37.664;2022-10-20T16:36:11;3.70;;;1.23;;
35693;SDS011;21812;55.536;37.664;2022-10-20T16:38:39;2.63;;;1.17;;
35693;SDS011;21812;55.536;37.664;2022-10-20T16:41:06;3.55;;;1.70;;
35693;SDS011;21812;55.536;37.664;2022-10-20T16:43:37;3.33;;;1.17;;
35693;SDS011;21812;55.536;37.664;2022-10-20T16:46:04;1.95;;;1.17;;
35693;SDS011;21812;55.536;37.664;2022-10-20T16:48:30;2.60;;;1.50;;
35693;SDS011;21812;55.536;37.664;2022-10-20T16:50:56;5.38;;;1.20;;
35693;SDS011;21812;55.536;37.664;2022-10-20T16:53:22;1.95;;;1.40;;
35693;SDS011;21812;55.536;37.664;2022-10-20T16:55:54;3.00;;;1.58;;
35693;SDS011;21812;55.536;37.664;2022-10-20T16:58:21;2.88;;;1.60;;
35693;SDS011;21812;55.536;37.664;2022-10-20T17:01:07;4.55;;;3.00;;
35693;SDS011;21812;55.536;37.664;2022-10-20T17:03:35;3.67;;;1.30;;
35693;SDS011;21812;55.536;37.664;2022-10-20T17:06:03;2.97;;;1.95;;
35693;SDS011;21812;55.536;37.664;2022-10-20T17:08:30;6.53;;;2.70;;
35693;SDS011;21812;55.536;37.664;2022-10-20T17:10:57;1.85;;;1.38;;
35693;SDS011;21812;55.536;37.664;2022-10-20T17:13:25;4.35;;;2.08;;
35693;SDS011;21812;55.536;37.664;2022-10-20T17:15:51;5.15;;;2.08;;
35693;SDS011;21812;55.536;37.664;2022-10-20T17:18:17;4.47;;;1.98;;
35693;SDS011;21812;55.536;37.664;2022-10-20T17:20:43;3.75;;;1.38;;
35693;SDS011;21812;55.536;37.664;2022-10-20T17:23:08;3.95;;;2.22;;
35693;SDS011;21812;55.536;37.664;2022-10-20T17:25:34;3.42;;;2.30;;
35693;SDS011;21812;55.536;37.664;2022-10-20T17:28:01;5.90;;;1.95;;
35693;SDS011;21812;55.536;37.664;2022-10-20T17:30:27;7.05;;;3.63;;
35693;SDS011;21812;55.536;37.664;2022-10-20T17:32:56;6.88;;;3.13;;
35693;SDS011;21812;55.536;37.664;2022-10-20T17:35:22;8.00;;;3.67;;
35693;SDS011;21812;55.536;37.664;2022-10-20T17:37:47;3.53;;;1.98;;
35693;SDS011;21812;55.536;37.664;2022-10-20T17:40:13;3.28;;;2.70;;
35693;SDS011;21812;55.536;37.664;2022-10-20T17:42:39;4.50;;;2.45;;
35693;SDS011;21812;55.536;37.664;2022-10-20T17:45:04;4.35;;;1.55;;
35693;SDS011;21812;55.536;37.664;2022-10-20T17:47:30;3.65;;;1.80;;
35693;SDS011;21812;55.536;37.664;2022-10-20T17:49:56;2.17;;;1.92;;
35693;SDS011;21812;55.536;37.664;2022-10-20T17:52:21;4.05;;;1.95;;